»·PEaware :: SWA1245 KLAX-KTUS

SWA1245 :: KLAX-KTUS

FLIGHT INFORMATION

Flight Status: Arrived
Operator:
Southwest Airlines
More flights by this operator :: More flights under this callsign
Pilot: Anonymous 17611 (17611)
Aircraft: Unknown
(B38M)
More flights by this aircraft type
Origin: KLAX Los Angeles Intl
United States
Destination: KTUS Tucson Intl
United States
More flights between these airports :: More routes between these airports
Route: DOTSS2 CNERY BLH J50 GBN DINGO5
File this flight plan on PilotEdge
Remarks:
Altitude:
(Current/Filed)
35,000ft
Speed:
(Current/Filed)
439kts
Departed: 09-Oct-20 10:17 AM
Arrived: 09-Oct-20 11:20 AM
Distance/Time
Traveled:
390nm/1:03
Distance/Time
To Go:
Arrived

Flight Plot

Page will automatically refresh every two minutes.

Flight plan parsing failed; only flown route is shown


Map Options




Map Legend


Flown Route
Filed Route
Departure Airport
Arrival Airport
Navaid (VOR, NDB)
Fix

Horizontal Profiles

Position Reports

Time Latitude Longitude Heading Altitude Ground
Speed
09-Oct-20 09:53 33.946833 -118.400681 264 110ft 0kts
09-Oct-20 09:54 33.946833 -118.400681 264 110ft 0kts
09-Oct-20 09:55 33.946833 -118.400681 264 110ft 0kts
09-Oct-20 09:56 33.946833 -118.400681 264 110ft 0kts
09-Oct-20 09:57 33.946833 -118.400681 264 110ft 0kts
09-Oct-20 09:58 33.946833 -118.400681 264 110ft 0kts
09-Oct-20 09:59 33.946833 -118.400681 264 110ft 0kts
09-Oct-20 10:00 33.946833 -118.400681 264 110ft 0kts
09-Oct-20 10:01 33.946833 -118.400681 264 110ft 0kts
09-Oct-20 10:02 33.946833 -118.400681 264 110ft 0kts
09-Oct-20 10:03 33.946833 -118.400681 264 110ft 0kts
09-Oct-20 10:04 33.946833 -118.400681 264 110ft 0kts
09-Oct-20 10:05 33.946833 -118.400681 264 110ft 0kts
09-Oct-20 10:06 33.946833 -118.400681 264 110ft 0kts
09-Oct-20 10:07 33.946833 -118.400681 264 110ft 0kts
09-Oct-20 10:08 33.946846 -118.400500 264 110ft 2kts
09-Oct-20 10:09 33.946674 -118.400064 345 110ft 1kts
09-Oct-20 10:10 33.947785 -118.400080 6 110ft 0kts
09-Oct-20 10:11 33.947785 -118.400079 6 110ft 0kts
09-Oct-20 10:12 33.947785 -118.400079 6 110ft 0kts
09-Oct-20 10:13 33.948443 -118.400329 315 110ft 7kts
09-Oct-20 10:14 33.949267 -118.401478 311 110ft 1kts
09-Oct-20 10:15 33.950050 -118.403048 263 110ft 20kts
09-Oct-20 10:16 33.944316 -118.450651 263 1277ft 216kts
09-Oct-20 10:18 33.939604 -118.534265 266 4356ft 266kts
09-Oct-20 10:19 33.922552 -118.620323 226 7889ft 281kts
09-Oct-20 10:20 33.845516 -118.637705 168 10552ft 322kts
09-Oct-20 10:21 33.766762 -118.577177 145 13355ft 352kts
09-Oct-20 10:22 33.693248 -118.496805 119 16603ft 374kts
09-Oct-20 10:23 33.655128 -118.378748 110 17300ft 388kts
09-Oct-20 10:24 33.643865 -118.249696 89 20367ft 402kts
09-Oct-20 10:25 33.644102 -118.112353 90 22947ft 422kts
09-Oct-20 10:26 33.644067 -117.968856 90 25282ft 440kts
09-Oct-20 10:27 33.643605 -117.820556 93 27400ft 456kts
09-Oct-20 10:28 33.614281 -117.671555 109 29403ft 465kts
09-Oct-20 10:29 33.576890 -117.521491 110 31403ft 474kts
09-Oct-20 10:30 33.539600 -117.371727 111 33753ft 468kts
09-Oct-20 10:31 33.505284 -117.222831 102 35058ft 482kts
09-Oct-20 10:32 33.502066 -117.058248 94 35058ft 514kts
09-Oct-20 10:33 33.499686 -116.887230 93 35071ft 513kts
09-Oct-20 10:34 33.497020 -116.716896 93 34990ft 513kts
09-Oct-20 10:34 33.494592 -116.574433 93 34924ft 513kts
09-Oct-20 10:36 33.491063 -116.375602 93 34896ft 514kts
09-Oct-20 10:36 33.488968 -116.233152 93 34888ft 513kts
09-Oct-20 10:37 33.487205 -116.063869 88 34889ft 515kts
09-Oct-20 10:38 33.525007 -115.898691 70 34890ft 519kts
09-Oct-20 10:39 33.572926 -115.735699 71 34892ft 519kts
09-Oct-20 10:40 33.615091 -115.570497 83 34900ft 517kts
09-Oct-20 10:41 33.613573 -115.399628 94 34897ft 513kts
09-Oct-20 10:42 33.609161 -115.228790 94 34902ft 513kts
09-Oct-20 10:43 33.604625 -115.058065 93 34908ft 511kts
09-Oct-20 10:44 33.599879 -114.888749 93 34909ft 508kts
09-Oct-20 10:45 33.586045 -114.721012 109 34917ft 504kts
09-Oct-20 10:46 33.537261 -114.563874 112 34911ft 502kts
09-Oct-20 10:47 33.490241 -114.406633 112 34913ft 502kts
09-Oct-20 10:48 33.443310 -114.250372 112 34906ft 502kts
09-Oct-20 10:49 33.395962 -114.093466 112 34907ft 502kts
09-Oct-20 10:50 33.348406 -113.936737 112 34908ft 502kts
09-Oct-20 10:51 33.300644 -113.780188 112 34909ft 502kts
09-Oct-20 10:52 33.252642 -113.623661 113 34934ft 503kts
09-Oct-20 10:53 33.204338 -113.467020 113 34954ft 502kts
09-Oct-20 10:54 33.156013 -113.311138 114 34939ft 502kts
09-Oct-20 10:55 33.107339 -113.154758 114 34932ft 502kts
09-Oct-20 10:56 33.058795 -112.999622 113 34933ft 500kts
09-Oct-20 10:57 33.010045 -112.844671 113 34935ft 500kts
09-Oct-20 10:58 32.961056 -112.689778 113 34935ft 499kts
09-Oct-20 10:59 32.905393 -112.540301 117 33872ft 483kts
09-Oct-20 11:00 32.850312 -112.397922 117 31660ft 468kts
09-Oct-20 11:01 32.797103 -112.260541 118 28546ft 449kts
09-Oct-20 11:02 32.746384 -112.130018 118 25468ft 430kts
09-Oct-20 11:03 32.697336 -112.004275 118 22376ft 413kts
09-Oct-20 11:04 32.650086 -111.883572 117 19354ft 395kts
09-Oct-20 11:05 32.604639 -111.767870 117 16348ft 377kts
09-Oct-20 11:06 32.562309 -111.660386 117 13816ft 345kts
09-Oct-20 11:07 32.511266 -111.567803 129 11734ft 333kts
09-Oct-20 11:08 32.456552 -111.481761 128 10961ft 321kts
09-Oct-20 11:09 32.402840 -111.397003 128 10963ft 322kts
09-Oct-20 11:10 32.361578 -111.304437 117 10985ft 324kts
09-Oct-20 11:11 32.357273 -111.198949 89 9459ft 307kts
09-Oct-20 11:12 32.357202 -111.104227 107 8986ft 281kts
09-Oct-20 11:13 32.334163 -111.015388 109 8534ft 289kts
09-Oct-20 11:14 32.309781 -110.926066 122 7013ft 276kts
09-Oct-20 11:15 32.258768 -110.875937 146 6680ft 229kts
09-Oct-20 11:16 32.205296 -110.883322 202 4724ft 197kts
09-Oct-20 11:17 32.161224 -110.906863 218 3478ft 167kts
09-Oct-20 11:18 32.129595 -110.944443 223 2604ft 152kts
09-Oct-20 11:19 32.117654 -110.957936 82 2590ft 3kts
09-Oct-20 11:20 32.117878 -110.955597 47 2590ft 16kts

Navigation Log

Ident Type
Flight plan parsing failed, navigation log unavailable